createdAt,value
2019-01-15T00:01:03.447Z,2.48
2019-01-15T00:02:14.674Z,2.56
2019-01-15T00:03:24.601Z,2.52
2019-01-15T00:04:34.517Z,2.52
2019-01-15T00:05:44.191Z,2.59
2019-01-15T00:06:53.863Z,2.46
2019-01-15T00:08:03.534Z,2.49
2019-01-15T00:09:12.945Z,2.46
2019-01-15T00:10:22.608Z,2.6
2019-01-15T00:11:32.286Z,2.63
2019-01-15T00:12:41.956Z,2.54
2019-01-15T00:13:51.629Z,2.61
2019-01-15T00:15:01.295Z,2.57
2019-01-15T00:16:10.727Z,2.54
2019-01-15T00:17:20.391Z,2.49
2019-01-15T00:18:29.810Z,2.57
2019-01-15T00:19:39.226Z,2.64
2019-01-15T00:20:49.155Z,2.69
2019-01-15T00:21:58.331Z,2.53
2019-01-15T00:23:08.250Z,2.69
2019-01-15T00:24:17.917Z,2.61
2019-01-15T00:25:27.341Z,2.66
2019-01-15T00:26:37.013Z,2.6
2019-01-15T00:27:46.636Z,2.61
2019-01-15T00:28:56.308Z,2.57
2019-01-15T00:30:05.737Z,2.59
2019-01-15T00:31:15.650Z,2.54
2019-01-15T00:32:25.075Z,2.56
2019-01-15T00:33:35.009Z,2.56
2019-01-15T00:34:44.426Z,2.71
2019-01-15T00:35:53.844Z,2.57
2019-01-15T00:37:03.513Z,2.64
2019-01-15T00:38:13.182Z,2.67
2019-01-15T00:39:22.851Z,2.72
2019-01-15T00:40:32.530Z,2.75
2019-01-15T00:41:42.201Z,2.77
2019-01-15T00:42:52.118Z,2.69
2019-01-15T00:44:01.546Z,2.69
2019-01-15T00:45:11.475Z,2.77
2019-01-15T00:46:20.923Z,2.79
2019-01-15T00:47:30.355Z,2.82
2019-01-15T00:48:39.778Z,2.82
2019-01-15T00:49:49.697Z,2.77
2019-01-15T00:50:58.866Z,2.84
2019-01-15T00:52:08.290Z,2.77
2019-01-15T00:53:18.209Z,2.81
2019-01-15T00:54:28.140Z,2.78
2019-01-15T00:55:37.812Z,2.99
2019-01-15T00:56:47.538Z,2.92
2019-01-15T00:57:56.981Z,2.9
2019-01-15T00:59:06.193Z,2.99
2019-01-15T01:00:16.114Z,2.96
2019-01-15T01:01:25.526Z,2.97
2019-01-15T01:02:35.444Z,3.02
2019-01-15T01:03:45.364Z,3.1
2019-01-15T01:04:54.778Z,3
2019-01-15T01:06:04.241Z,2.99
2019-01-15T01:07:13.670Z,3.05
2019-01-15T01:08:23.594Z,2.99
2019-01-15T01:09:33.261Z,2.97
2019-01-15T01:10:43.179Z,2.97
2019-01-15T01:11:52.841Z,3
2019-01-15T01:13:02.515Z,3.05
2019-01-15T01:14:12.187Z,2.96
2019-01-15T01:15:21.623Z,3.08
2019-01-15T01:16:31.300Z,3.23
2019-01-15T01:17:41.230Z,3.08
2019-01-15T01:18:50.908Z,3.06
2019-01-15T01:20:00.090Z,3.05
2019-01-15T01:21:09.840Z,2.93
2019-01-15T01:22:19.759Z,3.02
2019-01-15T01:23:35.735Z,3.14
2019-01-15T01:24:45.405Z,3.11
2019-01-15T01:25:55.079Z,2.93
2019-01-15T01:27:04.506Z,2.97
2019-01-15T01:28:14.182Z,3.08
2019-01-15T01:29:23.898Z,3.05
2019-01-15T01:30:33.310Z,3
2019-01-15T01:31:43.233Z,3
2019-01-15T01:32:53.155Z,2.97
2019-01-15T01:34:02.570Z,3.06
2019-01-15T01:35:12.499Z,3.13
2019-01-15T01:36:21.922Z,3.11
2019-01-15T01:37:31.593Z,2.93
2019-01-15T01:38:41.015Z,3.06
2019-01-15T01:39:50.183Z,3.03
2019-01-15T01:40:59.601Z,3.06
2019-01-15T01:42:09.589Z,3
2019-01-15T01:43:19.270Z,3.11
2019-01-15T01:44:28.689Z,3.05
2019-01-15T01:45:37.862Z,3.23
2019-01-15T01:46:47.537Z,3.14
2019-01-15T01:47:57.467Z,3.11
2019-01-15T01:49:07.138Z,3.1
2019-01-15T01:50:17.056Z,3.2
2019-01-15T01:51:26.975Z,3.13
2019-01-15T01:52:36.412Z,3.11
2019-01-15T01:53:45.582Z,3.17
2019-01-15T01:54:55.533Z,3.24
2019-01-15T01:56:05.465Z,3.13
2019-01-15T01:57:15.148Z,3.23
2019-01-15T01:58:24.815Z,3.11
2019-01-15T01:59:34.497Z,3.08
2019-01-15T02:00:44.172Z,3.15
2019-01-15T02:01:53.351Z,3.21
2019-01-15T02:03:03.043Z,3.23
2019-01-15T02:04:12.460Z,3.29
2019-01-15T02:05:21.885Z,3.29
2019-01-15T02:06:31.316Z,3.18
2019-01-15T02:07:41.243Z,3.18
2019-01-15T02:08:50.921Z,3.17
2019-01-15T02:10:00.595Z,3.18
2019-01-15T02:11:10.275Z,3.17
2019-01-15T02:12:19.958Z,3.26
2019-01-15T02:13:29.624Z,3.15
2019-01-15T02:14:39.295Z,3.2
2019-01-15T02:15:48.717Z,3.26
2019-01-15T02:16:58.396Z,3.35
2019-01-15T02:18:08.077Z,3.35
2019-01-15T02:19:17.756Z,3.24
2019-01-15T02:20:27.676Z,3.2
2019-01-15T02:21:37.099Z,3.26
2019-01-15T02:22:46.522Z,3.39
2019-01-15T02:23:56.439Z,3.29
2019-01-15T02:25:05.863Z,3.35
2019-01-15T02:26:15.778Z,3.31
2019-01-15T02:27:25.205Z,3.28
2019-01-15T02:28:34.930Z,3.29
2019-01-15T02:29:44.354Z,3.4
2019-01-15T02:30:53.534Z,3.26
2019-01-15T02:32:03.202Z,3.31
2019-01-15T02:33:12.875Z,3.39
2019-01-15T02:34:22.299Z,3.33
2019-01-15T02:35:31.981Z,3.33
2019-01-15T02:36:41.675Z,3.32
2019-01-15T02:37:51.348Z,3.35
2019-01-15T02:39:01.273Z,3.36
2019-01-15T02:40:11.206Z,3.42
2019-01-15T02:41:20.640Z,3.39
2019-01-15T02:42:30.324Z,3.32
2019-01-15T02:44:46.461Z,3.28
2019-01-15T02:45:56.134Z,3.32
2019-01-15T02:47:05.571Z,3.31
2019-01-15T02:48:14.997Z,3.29
2019-01-15T02:49:24.680Z,3.39
2019-01-15T02:50:34.383Z,3.32
2019-01-15T02:51:44.067Z,3.35
2019-01-15T02:52:53.488Z,3.33
2019-01-15T02:54:03.710Z,3.32
2019-01-15T02:55:13.646Z,3.35
2019-01-15T02:56:23.572Z,3.35
2019-01-15T02:57:33.252Z,3.39
2019-01-15T02:58:43.187Z,3.36
2019-01-15T02:59:52.856Z,3.35
2019-01-15T03:01:02.280Z,3.35
2019-01-15T03:02:12.080Z,3.35
2019-01-15T03:03:21.511Z,3.32
2019-01-15T03:04:31.450Z,3.31
2019-01-15T03:05:41.121Z,3.32
2019-01-15T03:06:50.801Z,3.39
2019-01-15T03:08:00.481Z,3.4
2019-01-15T03:09:10.409Z,3.45
2019-01-15T03:10:20.093Z,3.39
2019-01-15T03:11:29.761Z,3.47
2019-01-15T03:12:39.180Z,3.36
2019-01-15T03:13:49.115Z,3.29
2019-01-15T03:14:58.571Z,3.4
2019-01-15T03:16:07.995Z,3.36
2019-01-15T03:17:17.438Z,3.4
2019-01-15T03:18:27.367Z,3.2
2019-01-15T03:19:37.051Z,3.24
2019-01-15T03:20:46.740Z,3.33
2019-01-15T03:21:56.165Z,3.26
2019-01-15T03:23:05.847Z,3.31
2019-01-15T03:24:15.519Z,3.28
2019-01-15T03:25:24.691Z,3.28
2019-01-15T03:26:34.640Z,3.33
2019-01-15T03:27:44.067Z,3.33
2019-01-15T03:28:54.011Z,3.26
2019-01-15T03:30:03.686Z,3.28
2019-01-15T03:31:13.380Z,3.2
2019-01-15T03:32:23.088Z,3.1
2019-01-15T03:33:32.786Z,3.21
2019-01-15T03:34:42.220Z,3.26
2019-01-15T03:35:51.917Z,3.29
2019-01-15T03:37:01.587Z,3.21
2019-01-15T03:38:11.015Z,3.24
2019-01-15T03:39:20.696Z,3.2
2019-01-15T03:40:30.642Z,3.18
2019-01-15T03:41:40.078Z,3.32
2019-01-15T03:42:50.020Z,3.23
2019-01-15T03:43:59.187Z,3.18
2019-01-15T03:45:09.991Z,3.26
2019-01-15T03:46:19.680Z,3.23
2019-01-15T03:47:29.114Z,3.2
2019-01-15T03:48:38.791Z,3.17
2019-01-15T03:49:48.719Z,3.06
2019-01-15T03:50:58.656Z,3.28
2019-01-15T03:52:08.342Z,3.26
2019-01-15T03:53:18.027Z,3.28
2019-01-15T03:54:27.701Z,3.24
2019-01-15T03:55:37.632Z,3.2
2019-01-15T03:56:47.306Z,3.08
2019-01-15T03:57:57.246Z,3.11
2019-01-15T03:59:07.172Z,3.11
2019-01-15T04:00:16.853Z,3.11
2019-01-15T04:01:26.283Z,3.1
2019-01-15T04:02:35.717Z,3.17
2019-01-15T04:03:45.145Z,3.11
2019-01-15T04:04:54.837Z,3.14
2019-01-15T04:06:04.257Z,3.15
2019-01-15T04:07:13.689Z,3.18
2019-01-15T04:08:22.867Z,3.1
2019-01-15T04:09:32.297Z,3.24
2019-01-15T04:10:42.228Z,3.13
2019-01-15T04:11:51.434Z,3.21
2019-01-15T04:13:01.361Z,3.23
2019-01-15T04:14:18.504Z,3.21
2019-01-15T04:15:27.931Z,3.17
2019-01-15T04:16:37.617Z,3.17
2019-01-15T04:17:47.069Z,3.21
2019-01-15T04:18:56.768Z,3.24
2019-01-15T04:20:06.453Z,3.18
2019-01-15T04:21:16.154Z,3.35
2019-01-15T04:22:26.081Z,3.2
2019-01-15T04:23:35.777Z,3.4
2019-01-15T04:24:45.201Z,3.32
2019-01-15T04:25:55.131Z,3.39
2019-01-15T04:27:04.806Z,3.28
2019-01-15T04:28:14.486Z,3.31
2019-01-15T04:29:23.924Z,3.31
2019-01-15T04:30:33.601Z,3.23
2019-01-15T04:31:43.532Z,3.26
2019-01-15T04:32:52.706Z,3.35
2019-01-15T04:34:01.916Z,3.35
2019-01-15T04:35:11.873Z,3.43
2019-01-15T04:36:21.808Z,3.35
2019-01-15T04:37:31.487Z,3.5
2019-01-15T04:38:40.656Z,3.42
2019-01-15T04:39:50.339Z,3.55
2019-01-15T04:41:00.024Z,3.45
2019-01-15T04:42:09.197Z,3.48
2019-01-15T04:43:24.643Z,3.55
2019-01-15T04:44:34.082Z,3.54
2019-01-15T04:45:43.506Z,3.5
2019-01-15T04:46:53.433Z,3.54
2019-01-15T04:48:03.128Z,3.54
2019-01-15T04:49:13.074Z,3.52
2019-01-15T04:50:23.032Z,3.57
2019-01-15T04:51:32.701Z,3.54
2019-01-15T04:52:42.651Z,3.57
2019-01-15T04:53:52.613Z,3.69
2019-01-15T04:55:02.553Z,3.65
2019-01-15T04:56:11.984Z,3.68
2019-01-15T04:57:21.663Z,3.68
2019-01-15T04:58:31.593Z,3.68
2019-01-15T04:59:41.276Z,3.68
2019-01-15T05:00:50.952Z,3.61
2019-01-15T05:02:00.632Z,3.7
2019-01-15T05:03:10.563Z,3.69
2019-01-15T05:04:20.251Z,3.66
2019-01-15T05:05:29.948Z,3.72
2019-01-15T05:06:39.387Z,3.66
2019-01-15T05:07:49.072Z,3.73
2019-01-15T05:08:58.502Z,3.68
2019-01-15T05:10:08.423Z,3.68
2019-01-15T05:11:18.351Z,3.69
2019-01-15T05:12:28.027Z,3.7
2019-01-15T05:13:37.707Z,3.86
2019-01-15T05:14:47.632Z,3.78
2019-01-15T05:15:57.573Z,3.86
2019-01-15T05:17:07.523Z,3.87
2019-01-15T05:18:16.955Z,3.7
2019-01-15T05:19:26.983Z,3.93
2019-01-15T05:20:36.423Z,3.8
2019-01-15T05:21:46.363Z,3.8
2019-01-15T05:22:56.045Z,3.84
2019-01-15T05:24:05.729Z,3.78
2019-01-15T05:25:15.661Z,3.87
2019-01-15T05:26:24.903Z,3.86
2019-01-15T05:27:35.680Z,3.8
2019-01-15T05:28:45.616Z,3.79
2019-01-15T05:29:55.548Z,3.84
2019-01-15T05:31:05.417Z,3.8
2019-01-15T05:32:14.618Z,3.9
2019-01-15T05:33:24.560Z,3.9
2019-01-15T05:34:34.004Z,3.86
2019-01-15T05:35:43.950Z,3.87
2019-01-15T05:36:53.632Z,3.93
2019-01-15T05:38:02.810Z,3.93
2019-01-15T05:39:12.753Z,3.76
2019-01-15T05:40:22.435Z,3.88
2019-01-15T05:41:31.901Z,3.83
2019-01-15T05:42:41.833Z,3.86
2019-01-15T05:43:51.514Z,3.86
2019-01-15T05:45:01.196Z,3.93
2019-01-15T05:46:11.149Z,3.9
2019-01-15T05:47:21.076Z,3.91
2019-01-15T05:48:31.010Z,3.86
2019-01-15T05:49:40.604Z,3.88
2019-01-15T05:50:50.051Z,3.87
2019-01-15T05:51:59.485Z,3.83
2019-01-15T05:53:09.435Z,3.93
2019-01-15T05:54:19.128Z,3.84
2019-01-15T05:55:29.064Z,3.88
2019-01-15T05:56:39.000Z,3.87
2019-01-15T05:57:48.685Z,3.8
2019-01-15T05:58:58.105Z,3.9
2019-01-15T06:00:07.779Z,3.86
2019-01-15T06:01:17.712Z,3.93
2019-01-15T06:02:27.131Z,3.94
2019-01-15T06:03:36.807Z,3.84
2019-01-15T06:04:45.978Z,3.78
2019-01-15T06:05:55.665Z,3.86
2019-01-15T06:07:05.586Z,3.9
2019-01-15T06:08:15.519Z,3.87
2019-01-15T06:09:24.954Z,3.9
2019-01-15T06:10:34.129Z,3.94
2019-01-15T06:11:43.560Z,3.97
2019-01-15T06:12:53.243Z,3.93
2019-01-15T06:14:03.165Z,3.94
2019-01-15T06:15:12.336Z,3.94
2019-01-15T06:16:21.760Z,4.04
2019-01-15T06:17:31.698Z,3.94
2019-01-15T06:18:41.384Z,3.96
2019-01-15T06:19:51.065Z,3.97
2019-01-15T06:21:00.488Z,4.08
2019-01-15T06:22:10.202Z,4.09
2019-01-15T06:23:19.876Z,4.02
2019-01-15T06:24:29.547Z,3.97
2019-01-15T06:25:39.001Z,4.06
2019-01-15T06:26:48.692Z,4
2019-01-15T06:27:57.871Z,4.02
2019-01-15T06:29:07.701Z,4.08
2019-01-15T06:30:17.376Z,4.18
2019-01-15T06:31:26.804Z,4.02
2019-01-15T06:32:36.732Z,4.11
2019-01-15T06:33:46.418Z,4.06
2019-01-15T06:34:56.110Z,4.09
2019-01-15T06:36:06.049Z,4.09
2019-01-15T06:37:15.730Z,4.11
2019-01-15T06:38:25.668Z,4.15
2019-01-15T06:39:35.355Z,4.11
2019-01-15T06:40:45.038Z,4.06
2019-01-15T06:41:54.713Z,4.14
2019-01-15T06:43:06.264Z,4.12
2019-01-15T06:44:15.698Z,4.11
2019-01-15T06:45:25.376Z,4.14
2019-01-15T06:46:34.805Z,4.14
2019-01-15T06:47:44.727Z,4.24
2019-01-15T06:48:54.152Z,4.26
2019-01-15T06:50:04.091Z,4.2
2019-01-15T06:51:13.774Z,4.29
2019-01-15T06:52:22.953Z,4.29
2019-01-15T06:53:32.374Z,4.32
2019-01-15T06:54:42.052Z,4.32
2019-01-15T06:55:51.484Z,4.3
2019-01-15T06:57:00.916Z,4.29
2019-01-15T06:58:10.625Z,4.32
2019-01-15T06:59:20.060Z,4.41
2019-01-15T07:00:29.747Z,4.41
2019-01-15T07:01:39.179Z,4.44
2019-01-15T07:02:48.854Z,4.41
2019-01-15T07:03:58.528Z,4.44
2019-01-15T07:05:08.202Z,4.45
2019-01-15T07:06:19.481Z,4.4
2019-01-15T07:07:29.160Z,4.47
2019-01-15T07:08:38.835Z,4.55
2019-01-15T07:09:48.513Z,4.51
2019-01-15T07:10:57.941Z,4.47
2019-01-15T07:12:07.985Z,4.54
2019-01-15T07:13:17.783Z,4.63
2019-01-15T07:14:26.962Z,4.63
2019-01-15T07:15:36.399Z,4.63
2019-01-15T07:16:46.329Z,4.69
2019-01-15T07:17:56.054Z,4.69
2019-01-15T07:19:05.484Z,4.66
2019-01-15T07:20:14.912Z,4.7
2019-01-15T07:21:24.149Z,4.75
2019-01-15T07:22:33.576Z,4.7
2019-01-15T07:23:43.249Z,4.75
2019-01-15T07:24:53.183Z,4.84
2019-01-15T07:26:02.612Z,4.67
2019-01-15T07:27:11.791Z,4.73
2019-01-15T07:28:21.715Z,4.78
2019-01-15T07:29:30.896Z,4.75
2019-01-15T07:30:40.573Z,4.78
2019-01-15T07:31:50.259Z,4.8
2019-01-15T07:33:00.271Z,4.84
2019-01-15T07:34:10.197Z,4.73
2019-01-15T07:35:19.622Z,4.92
2019-01-15T07:36:29.544Z,4.82
2019-01-15T07:37:39.476Z,4.73
2019-01-15T07:38:49.150Z,4.8
2019-01-15T07:39:58.826Z,4.84
2019-01-15T07:41:08.006Z,4.77
2019-01-15T07:42:17.935Z,4.73
2019-01-15T07:43:27.363Z,4.73
2019-01-15T07:44:37.038Z,4.77
2019-01-15T07:45:46.967Z,4.84
2019-01-15T07:46:56.639Z,4.78
2019-01-15T07:48:06.066Z,4.84
2019-01-15T07:49:15.992Z,4.7
2019-01-15T07:50:25.670Z,4.8
2019-01-15T07:51:35.343Z,4.75
2019-01-15T07:52:44.775Z,4.75
2019-01-15T07:53:54.207Z,4.75
2019-01-15T07:55:03.637Z,4.77
2019-01-15T07:56:14.366Z,4.73
2019-01-15T07:57:24.304Z,4.85
2019-01-15T07:58:33.726Z,4.75
2019-01-15T07:59:43.403Z,4.78
2019-01-15T08:00:52.831Z,4.73
2019-01-15T08:02:01.764Z,4.82
2019-01-15T08:03:11.192Z,4.92
2019-01-15T08:04:20.876Z,4.78
2019-01-15T08:05:30.800Z,4.91
2019-01-15T08:06:40.470Z,4.88
2019-01-15T08:07:50.403Z,4.88
2019-01-15T08:09:00.080Z,4.86
2019-01-15T08:10:10.004Z,4.82
2019-01-15T08:11:19.683Z,4.86
2019-01-15T08:12:29.359Z,4.91
2019-01-15T08:13:38.783Z,4.84
2019-01-15T08:14:48.471Z,4.94
2019-01-15T08:15:58.965Z,4.94
2019-01-15T08:17:08.895Z,4.92
2019-01-15T08:18:18.828Z,4.94
2019-01-15T08:19:28.765Z,4.96
2019-01-15T08:20:38.446Z,5.03
2019-01-15T08:21:48.151Z,4.99
2019-01-15T08:22:58.086Z,4.97
2019-01-15T08:24:07.553Z,5
2019-01-15T08:25:16.983Z,5.04
2019-01-15T08:26:26.664Z,4.94
2019-01-15T08:27:36.095Z,5
2019-01-15T08:28:45.782Z,4.97
2019-01-15T08:29:55.715Z,5.02
2019-01-15T08:31:05.405Z,4.96
2019-01-15T08:32:14.336Z,4.99
2019-01-15T08:33:24.275Z,4.96
2019-01-15T08:34:34.210Z,4.99
2019-01-15T08:35:44.140Z,4.92
2019-01-15T08:36:53.815Z,5.03
2019-01-15T08:38:03.489Z,5.09
2019-01-15T08:39:12.666Z,5.02
2019-01-15T08:40:22.647Z,5.03
2019-01-15T08:41:32.319Z,5.04
2019-01-15T08:42:41.994Z,5.02
2019-01-15T08:43:51.693Z,5.17
2019-01-15T08:45:01.417Z,5.07
2019-01-15T08:46:11.354Z,5.07
2019-01-15T08:47:21.273Z,5.13
2019-01-15T08:48:31.208Z,5.13
2019-01-15T08:49:40.888Z,5.15
2019-01-15T08:50:50.820Z,5.13
2019-01-15T08:52:00.253Z,5.18
2019-01-15T08:53:09.933Z,5.18
2019-01-15T08:54:19.605Z,5.21
2019-01-15T08:55:29.288Z,5.17
2019-01-15T08:56:39.217Z,5.2
2019-01-15T08:57:49.151Z,5.25
2019-01-15T08:58:58.333Z,5.22
2019-01-15T09:00:08.018Z,5.28
2019-01-15T09:01:17.948Z,5.28
2019-01-15T09:02:27.378Z,5.31
2019-01-15T09:03:37.060Z,5.3
2019-01-15T09:04:46.987Z,5.38
2019-01-15T09:05:56.660Z,5.31
2019-01-15T09:07:06.351Z,5.33
2019-01-15T09:08:16.084Z,5.4
2019-01-15T09:09:25.362Z,5.39
2019-01-15T09:10:35.039Z,5.43
2019-01-15T09:11:44.713Z,5.43
2019-01-15T09:12:53.894Z,5.43
2019-01-15T09:14:03.613Z,5.46
2019-01-15T09:15:13.564Z,5.45
2019-01-15T09:16:23.128Z,5.48
2019-01-15T09:17:32.300Z,5.54
2019-01-15T09:18:41.801Z,5.51
2019-01-15T09:19:51.649Z,5.49
2019-01-15T09:21:00.831Z,5.6
2019-01-15T09:22:10.012Z,5.51
2019-01-15T09:23:19.509Z,5.6
2019-01-15T09:24:29.277Z,5.56
2019-01-15T09:25:38.457Z,5.65
2019-01-15T09:26:48.132Z,5.63
2019-01-15T09:27:57.811Z,5.63
2019-01-15T09:29:07.815Z,5.63
2019-01-15T09:30:17.623Z,5.65
2019-01-15T09:31:27.557Z,5.63
2019-01-15T09:32:36.996Z,5.67
2019-01-15T09:33:46.938Z,5.71
2019-01-15T09:34:56.374Z,5.75
2019-01-15T09:36:05.812Z,5.75
2019-01-15T09:37:15.733Z,5.75
2019-01-15T09:38:25.661Z,5.86
2019-01-15T09:39:35.583Z,5.83
2019-01-15T09:40:45.256Z,5.76
2019-01-15T09:41:54.936Z,5.74
2019-01-15T09:43:04.865Z,5.85
2019-01-15T09:44:14.344Z,5.79
2019-01-15T09:45:23.774Z,5.83
2019-01-15T09:46:33.193Z,5.83
2019-01-15T09:47:43.139Z,5.74
2019-01-15T09:48:53.062Z,5.75
2019-01-15T09:50:02.988Z,5.81
2019-01-15T09:51:12.666Z,5.89
2019-01-15T09:52:26.350Z,5.86
2019-01-15T09:53:35.779Z,5.74
2019-01-15T09:54:45.712Z,5.86
2019-01-15T09:55:55.396Z,5.91
2019-01-15T09:57:04.819Z,5.82
2019-01-15T09:58:14.750Z,5.93
2019-01-15T09:59:24.685Z,5.9
2019-01-15T10:00:34.363Z,5.86
2019-01-15T10:01:44.039Z,5.94
2019-01-15T10:02:53.972Z,5.9
2019-01-15T10:04:03.399Z,5.91
2019-01-15T10:05:13.078Z,5.89
2019-01-15T10:06:22.763Z,5.93
2019-01-15T10:07:32.192Z,5.93
2019-01-15T10:08:42.120Z,5.97
2019-01-15T10:09:51.799Z,6
2019-01-15T10:11:01.236Z,5.97
2019-01-15T10:12:11.162Z,5.97
2019-01-15T10:13:21.085Z,5.99
2019-01-15T10:14:30.765Z,6.01
2019-01-15T10:15:46.284Z,6
2019-01-15T10:16:55.727Z,5.97
2019-01-15T10:18:05.671Z,6.01
2019-01-15T10:19:15.097Z,6.15
2019-01-15T10:20:24.529Z,6.11
2019-01-15T10:21:34.204Z,6.09
2019-01-15T10:22:45.103Z,6.12
2019-01-15T10:23:55.026Z,6.09
2019-01-15T10:25:04.700Z,6.09
2019-01-15T10:26:14.380Z,6.06
2019-01-15T10:27:24.296Z,6.06
2019-01-15T10:28:33.974Z,6.04
2019-01-15T10:29:43.401Z,6.21
2019-01-15T10:30:53.328Z,6.18
2019-01-15T10:32:03.251Z,6.19
2019-01-15T10:33:12.928Z,6.25
2019-01-15T10:34:22.606Z,6.25
2019-01-15T10:35:32.645Z,6.12
2019-01-15T10:36:42.139Z,6.27
2019-01-15T10:37:52.072Z,6.19
2019-01-15T10:39:01.502Z,6.22
2019-01-15T10:40:11.175Z,6.25
2019-01-15T10:41:20.850Z,6.27
2019-01-15T10:42:30.777Z,6.27
2019-01-15T10:43:40.204Z,6.25
2019-01-15T10:44:53.422Z,6.25
2019-01-15T10:46:02.856Z,6.25
2019-01-15T10:47:12.790Z,6.28
2019-01-15T10:48:22.211Z,6.19
2019-01-15T10:49:31.896Z,6.33
2019-01-15T10:50:41.577Z,6.28
2019-01-15T10:51:50.754Z,6.33
2019-01-15T10:53:00.680Z,6.21
2019-01-15T10:54:10.359Z,6.19
2019-01-15T10:55:19.788Z,6.19
2019-01-15T10:56:29.480Z,6.21
2019-01-15T10:57:39.154Z,6.31
2019-01-15T10:58:49.081Z,6.19
2019-01-15T10:59:58.503Z,6.27
2019-01-15T11:01:08.189Z,6.27
2019-01-15T11:02:18.127Z,6.31
2019-01-15T11:03:27.807Z,6.34
2019-01-15T11:04:37.488Z,6.27
2019-01-15T11:05:47.162Z,6.25
2019-01-15T11:06:56.841Z,6.22
2019-01-15T11:08:06.281Z,6.33
2019-01-15T11:09:15.507Z,6.28
2019-01-15T11:10:25.185Z,6.27
2019-01-15T11:11:35.108Z,6.4
2019-01-15T11:12:44.780Z,6.27
2019-01-15T11:13:54.708Z,6.37
2019-01-15T11:15:04.162Z,6.37
2019-01-15T11:16:13.898Z,6.33
2019-01-15T11:17:23.822Z,6.3
2019-01-15T11:18:33.505Z,6.3
2019-01-15T11:19:44.293Z,6.34
2019-01-15T11:20:53.976Z,6.3
2019-01-15T11:22:03.413Z,6.38
2019-01-15T11:23:13.337Z,6.36
2019-01-15T11:24:23.077Z,6.43
2019-01-15T11:25:33.006Z,6.4
2019-01-15T11:26:42.948Z,6.3
2019-01-15T11:27:52.876Z,6.38
2019-01-15T11:29:02.309Z,6.44
2019-01-15T11:30:11.985Z,6.34
2019-01-15T11:31:21.918Z,6.38
2019-01-15T11:32:31.843Z,6.38
2019-01-15T11:33:40.771Z,6.38
2019-01-15T11:34:50.194Z,6.33
2019-01-15T11:35:59.865Z,6.37
2019-01-15T11:37:09.794Z,6.41
2019-01-15T11:38:19.474Z,6.34
2019-01-15T11:39:29.399Z,6.41
2019-01-15T11:40:38.827Z,6.34
2019-01-15T11:41:48.496Z,6.54
2019-01-15T11:42:58.170Z,6.48
2019-01-15T11:44:08.102Z,6.48
2019-01-15T11:45:17.532Z,6.43
2019-01-15T11:46:27.214Z,6.36
2019-01-15T11:47:36.642Z,6.43
2019-01-15T11:48:46.325Z,6.46
2019-01-15T11:49:56.256Z,6.56
2019-01-15T11:51:05.985Z,6.54
2019-01-15T11:52:15.410Z,6.52
2019-01-15T11:53:25.108Z,6.54
2019-01-15T11:54:35.088Z,6.55
2019-01-15T11:55:45.028Z,6.52
2019-01-15T11:56:54.711Z,6.61
2019-01-15T11:58:04.635Z,6.56
2019-01-15T11:59:14.563Z,6.52
2019-01-15T12:00:24.251Z,6.56
2019-01-15T12:01:33.933Z,6.62
2019-01-15T12:02:43.628Z,6.66
2019-01-15T12:03:53.299Z,6.7
2019-01-15T12:05:02.743Z,6.59
2019-01-15T12:06:12.176Z,6.66
2019-01-15T12:07:21.638Z,6.62
2019-01-15T12:08:31.565Z,6.69
2019-01-15T12:09:41.000Z,6.67
2019-01-15T12:10:50.930Z,6.67
2019-01-15T12:12:00.385Z,6.66
2019-01-15T12:13:10.060Z,6.59
2019-01-15T12:14:19.742Z,6.62
2019-01-15T12:15:29.469Z,6.62
2019-01-15T12:16:39.146Z,6.66
2019-01-15T12:17:48.824Z,6.64
2019-01-15T12:18:58.500Z,6.71
2019-01-15T12:20:08.174Z,6.67
2019-01-15T12:21:17.857Z,6.73
2019-01-15T12:22:27.033Z,6.7
2019-01-15T12:23:36.736Z,6.77
2019-01-15T12:24:46.159Z,6.8
2019-01-15T12:25:55.337Z,6.74
2019-01-15T12:27:05.259Z,6.8
2019-01-15T12:28:14.772Z,6.76
2019-01-15T12:29:24.711Z,6.69
2019-01-15T12:30:34.390Z,6.77
2019-01-15T12:31:43.847Z,6.73
2019-01-15T12:32:53.272Z,6.71
2019-01-15T12:34:02.953Z,6.73
2019-01-15T12:35:12.895Z,6.7
2019-01-15T12:36:22.577Z,6.71
2019-01-15T12:37:32.229Z,6.84
2019-01-15T12:38:41.927Z,6.81
2019-01-15T12:39:51.360Z,6.81
2019-01-15T12:41:01.288Z,6.87
2019-01-15T12:42:10.972Z,6.88
2019-01-15T12:43:20.402Z,6.91
2019-01-15T12:44:30.358Z,6.84
2019-01-15T12:45:40.039Z,6.84
2019-01-15T12:46:49.725Z,6.88
2019-01-15T12:47:59.395Z,6.8
2019-01-15T12:49:09.082Z,6.87
2019-01-15T12:50:18.776Z,6.81
2019-01-15T12:51:28.205Z,6.89
2019-01-15T12:52:37.885Z,6.88
2019-01-15T12:53:47.566Z,7.03
2019-01-15T12:54:57.239Z,7.02
2019-01-15T12:56:07.178Z,6.94
2019-01-15T12:57:23.826Z,7.03
2019-01-15T12:58:33.504Z,6.91
2019-01-15T12:59:43.186Z,6.92
2019-01-15T13:00:52.864Z,7.03
2019-01-15T13:02:02.790Z,6.85
2019-01-15T13:03:12.466Z,6.91
2019-01-15T13:04:22.153Z,6.95
2019-01-15T13:05:31.582Z,6.99
2019-01-15T13:06:41.519Z,6.99
2019-01-15T13:07:51.451Z,7.05
2019-01-15T13:09:01.131Z,7.03
2019-01-15T13:10:10.314Z,7.06
2019-01-15T13:11:19.745Z,6.99
2019-01-15T13:12:28.938Z,7.05
2019-01-15T13:13:38.364Z,7.06
2019-01-15T13:14:47.837Z,7.02
2019-01-15T13:15:57.777Z,7.02
2019-01-15T13:17:07.288Z,7.05
2019-01-15T13:18:17.267Z,7.03
2019-01-15T13:19:26.984Z,6.98
2019-01-15T13:20:36.683Z,7.05
2019-01-15T13:21:46.143Z,7.2
2019-01-15T13:22:55.360Z,7.15
2019-01-15T13:24:05.104Z,7.03
2019-01-15T13:25:14.406Z,7.07
2019-01-15T13:26:24.169Z,7.1
2019-01-15T13:27:33.922Z,7.13
2019-01-15T13:28:43.492Z,7.15
2019-01-15T13:29:53.235Z,7.13
2019-01-15T13:31:02.749Z,7.21
2019-01-15T13:32:12.067Z,7.16
2019-01-15T13:33:22.117Z,7.17
2019-01-15T13:34:32.057Z,7.12
2019-01-15T13:35:41.483Z,7.13
2019-01-15T13:36:51.168Z,7.13
2019-01-15T13:38:01.093Z,7.21
2019-01-15T13:39:11.020Z,7.23
2019-01-15T13:40:20.939Z,7.32
2019-01-15T13:41:30.620Z,7.34
2019-01-15T13:42:40.047Z,7.2
2019-01-15T13:43:49.970Z,7.23
2019-01-15T13:44:59.658Z,7.32
2019-01-15T13:46:09.347Z,7.25
2019-01-15T13:47:18.785Z,7.28
2019-01-15T13:48:27.963Z,7.28
2019-01-15T13:49:37.974Z,7.32
2019-01-15T13:50:47.658Z,7.37
2019-01-15T13:51:57.333Z,7.27
2019-01-15T13:53:06.758Z,7.25
2019-01-15T13:54:15.436Z,7.39
2019-01-15T13:55:25.362Z,7.43
2019-01-15T13:56:35.714Z,7.45
2019-01-15T13:57:45.401Z,7.39
2019-01-15T13:58:54.577Z,7.42
2019-01-15T14:00:04.254Z,7.43
2019-01-15T14:01:13.944Z,7.46
2019-01-15T14:02:23.136Z,7.42
2019-01-15T14:03:33.065Z,7.4
2019-01-15T14:04:42.745Z,7.46
2019-01-15T14:05:53.638Z,7.43
2019-01-15T14:07:03.442Z,7.49
2019-01-15T14:08:13.137Z,7.48
2019-01-15T14:09:22.070Z,7.42
2019-01-15T14:10:31.750Z,7.48
2019-01-15T14:11:41.201Z,7.48
2019-01-15T14:12:50.882Z,7.42
2019-01-15T14:14:00.628Z,7.4
2019-01-15T14:15:10.056Z,7.48
2019-01-15T14:16:19.539Z,7.5
2019-01-15T14:17:29.217Z,7.46
2019-01-15T14:18:38.645Z,7.42
2019-01-15T14:19:48.329Z,7.42
2019-01-15T14:20:57.750Z,7.48
2019-01-15T14:22:08.462Z,7.37
2019-01-15T14:23:18.142Z,7.42
2019-01-15T14:24:27.569Z,7.42
2019-01-15T14:25:37.001Z,7.35
2019-01-15T14:26:46.677Z,7.31
2019-01-15T14:27:56.621Z,7.34
2019-01-15T14:29:06.301Z,7.27
2019-01-15T14:30:15.478Z,7.48
2019-01-15T14:31:25.461Z,7.35
2019-01-15T14:32:35.139Z,7.31
2019-01-15T14:33:44.823Z,7.34
2019-01-15T14:34:54.525Z,7.37
2019-01-15T14:36:04.468Z,7.4
2019-01-15T14:37:13.667Z,7.34
2019-01-15T14:38:23.101Z,7.28
2019-01-15T14:39:32.783Z,7.32
2019-01-15T14:40:42.717Z,7.35
2019-01-15T14:41:51.900Z,7.37
2019-01-15T14:43:01.583Z,7.32
2019-01-15T14:44:11.275Z,7.31
2019-01-15T14:45:20.708Z,7.31
2019-01-15T14:46:30.391Z,7.25
2019-01-15T14:47:39.826Z,7.34
2019-01-15T14:48:49.005Z,7.3
2019-01-15T14:49:58.935Z,7.31
2019-01-15T14:51:08.375Z,7.4
2019-01-15T14:52:18.053Z,7.3
2019-01-15T14:53:27.737Z,7.31
2019-01-15T14:54:37.668Z,7.42
2019-01-15T14:55:47.367Z,7.32
2019-01-15T14:56:56.798Z,7.31
2019-01-15T14:58:06.475Z,7.27
2019-01-15T14:59:16.156Z,7.3
2019-01-15T15:00:25.594Z,7.28
2019-01-15T15:01:35.029Z,7.34
2019-01-15T15:02:44.209Z,7.32
2019-01-15T15:03:53.904Z,7.32
2019-01-15T15:05:03.337Z,7.25
2019-01-15T15:06:13.293Z,7.35
2019-01-15T15:07:22.968Z,7.31
2019-01-15T15:08:32.654Z,7.3
2019-01-15T15:09:42.618Z,7.28
2019-01-15T15:10:52.560Z,7.3
2019-01-15T15:12:02.546Z,7.17
2019-01-15T15:13:11.986Z,7.31
2019-01-15T15:14:21.662Z,7.3
2019-01-15T15:15:31.361Z,7.32
2019-01-15T15:16:40.794Z,7.32
2019-01-15T15:17:50.731Z,7.3
2019-01-15T15:18:59.910Z,7.3
2019-01-15T15:20:09.598Z,7.25
2019-01-15T15:21:19.287Z,7.27
2019-01-15T15:22:29.209Z,7.31
2019-01-15T15:23:38.911Z,7.34
2019-01-15T15:24:48.590Z,7.31
2019-01-15T15:25:58.516Z,7.34
2019-01-15T15:27:08.192Z,7.25
2019-01-15T15:28:17.904Z,7.34
2019-01-15T15:29:27.624Z,7.27
2019-01-15T15:30:37.317Z,7.28
2019-01-15T15:31:46.987Z,7.32
2019-01-15T15:32:56.418Z,7.3
2019-01-15T15:34:06.345Z,7.3